sensor_id;sensor_type;location;lat;lon;timestamp;P1;durP1;ratioP1;P2;durP2;ratioP2
2976;SDS011;1498;51.500;7.440;2023-01-28T00:01:11;9.77;;;7.67;;
2976;SDS011;1498;51.500;7.440;2023-01-28T00:03:38;8.60;;;6.80;;
2976;SDS011;1498;51.500;7.440;2023-01-28T00:06:05;8.77;;;7.87;;
2976;SDS011;1498;51.500;7.440;2023-01-28T00:08:33;10.10;;;9.03;;
2976;SDS011;1498;51.500;7.440;2023-01-28T00:10:59;7.97;;;7.17;;
2976;SDS011;1498;51.500;7.440;2023-01-28T00:13:26;9.33;;;8.17;;
2976;SDS011;1498;51.500;7.440;2023-01-28T00:15:55;11.17;;;7.50;;
2976;SDS011;1498;51.500;7.440;2023-01-28T00:18:22;9.00;;;8.20;;
2976;SDS011;1498;51.500;7.440;2023-01-28T00:21:00;8.83;;;7.63;;
2976;SDS011;1498;51.500;7.440;2023-01-28T00:23:37;8.80;;;7.17;;
2976;SDS011;1498;51.500;7.440;2023-01-28T00:26:05;8.77;;;7.60;;
2976;SDS011;1498;51.500;7.440;2023-01-28T00:28:33;7.73;;;6.93;;
2976;SDS011;1498;51.500;7.440;2023-01-28T00:31:05;9.63;;;8.73;;
2976;SDS011;1498;51.500;7.440;2023-01-28T00:33:38;12.17;;;8.57;;
2976;SDS011;1498;51.500;7.440;2023-01-28T00:36:04;9.33;;;7.70;;
2976;SDS011;1498;51.500;7.440;2023-01-28T00:38:30;8.70;;;7.90;;
2976;SDS011;1498;51.500;7.440;2023-01-28T00:41:05;9.23;;;8.33;;
2976;SDS011;1498;51.500;7.440;2023-01-28T00:43:34;7.77;;;7.07;;
2976;SDS011;1498;51.500;7.440;2023-01-28T00:46:00;8.30;;;7.60;;
2976;SDS011;1498;51.500;7.440;2023-01-28T00:48:26;10.33;;;8.00;;
2976;SDS011;1498;51.500;7.440;2023-01-28T00:50:51;12.57;;;8.80;;
2976;SDS011;1498;51.500;7.440;2023-01-28T00:53:17;10.30;;;8.10;;
2976;SDS011;1498;51.500;7.440;2023-01-28T00:55:42;10.27;;;9.27;;
2976;SDS011;1498;51.500;7.440;2023-01-28T00:58:08;9.47;;;7.50;;
2976;SDS011;1498;51.500;7.440;2023-01-28T01:00:33;12.00;;;8.00;;
2976;SDS011;1498;51.500;7.440;2023-01-28T01:02:59;11.53;;;8.30;;
2976;SDS011;1498;51.500;7.440;2023-01-28T01:05:24;9.00;;;7.80;;
2976;SDS011;1498;51.500;7.440;2023-01-28T01:07:50;9.67;;;8.37;;
2976;SDS011;1498;51.500;7.440;2023-01-28T01:10:17;10.07;;;8.57;;
2976;SDS011;1498;51.500;7.440;2023-01-28T01:12:47;12.07;;;9.00;;
2976;SDS011;1498;51.500;7.440;2023-01-28T01:15:14;9.43;;;8.43;;
2976;SDS011;1498;51.500;7.440;2023-01-28T01:17:41;9.60;;;8.60;;
2976;SDS011;1498;51.500;7.440;2023-01-28T01:20:14;13.50;;;9.00;;
2976;SDS011;1498;51.500;7.440;2023-01-28T01:22:50;10.57;;;8.30;;
2976;SDS011;1498;51.500;7.440;2023-01-28T01:25:16;8.73;;;7.70;;
2976;SDS011;1498;51.500;7.440;2023-01-28T01:27:43;9.40;;;8.50;;
2976;SDS011;1498;51.500;7.440;2023-01-28T01:30:11;7.77;;;6.97;;
2976;SDS011;1498;51.500;7.440;2023-01-28T01:32:37;9.73;;;8.07;;
2976;SDS011;1498;51.500;7.440;2023-01-28T01:35:03;8.20;;;7.40;;
2976;SDS011;1498;51.500;7.440;2023-01-28T01:37:31;9.70;;;7.77;;
2976;SDS011;1498;51.500;7.440;2023-01-28T01:39:57;8.07;;;7.10;;
2976;SDS011;1498;51.500;7.440;2023-01-28T01:42:23;9.87;;;7.73;;
2976;SDS011;1498;51.500;7.440;2023-01-28T01:44:54;9.97;;;7.27;;
2976;SDS011;1498;51.500;7.440;2023-01-28T01:47:27;8.47;;;6.90;;
2976;SDS011;1498;51.500;7.440;2023-01-28T01:49:53;7.47;;;6.77;;
2976;SDS011;1498;51.500;7.440;2023-01-28T01:52:21;8.37;;;6.80;;
2976;SDS011;1498;51.500;7.440;2023-01-28T01:54:51;8.57;;;7.77;;
2976;SDS011;1498;51.500;7.440;2023-01-28T01:57:21;8.33;;;7.47;;
2976;SDS011;1498;51.500;7.440;2023-01-28T01:59:51;8.47;;;7.30;;
2976;SDS011;1498;51.500;7.440;2023-01-28T02:02:17;8.60;;;7.10;;
2976;SDS011;1498;51.500;7.440;2023-01-28T02:04:43;7.03;;;6.37;;
2976;SDS011;1498;51.500;7.440;2023-01-28T02:07:13;10.60;;;7.00;;
2976;SDS011;1498;51.500;7.440;2023-01-28T02:09:40;9.93;;;7.20;;
2976;SDS011;1498;51.500;7.440;2023-01-28T02:12:07;7.57;;;6.77;;
2976;SDS011;1498;51.500;7.440;2023-01-28T02:14:42;9.30;;;7.37;;
2976;SDS011;1498;51.500;7.440;2023-01-28T02:17:12;9.67;;;7.50;;
2976;SDS011;1498;51.500;7.440;2023-01-28T02:19:44;8.93;;;8.13;;
2976;SDS011;1498;51.500;7.440;2023-01-28T02:30:19;9.30;;;7.23;;
2976;SDS011;1498;51.500;7.440;2023-01-28T02:32:52;7.50;;;6.70;;
2976;SDS011;1498;51.500;7.440;2023-01-28T02:38:13;10.60;;;8.00;;
2976;SDS011;1498;51.500;7.440;2023-01-28T02:40:46;9.03;;;7.67;;
2976;SDS011;1498;51.500;7.440;2023-01-28T02:43:31;11.83;;;7.13;;
2976;SDS011;1498;51.500;7.440;2023-01-28T02:45:57;8.37;;;7.53;;
2976;SDS011;1498;51.500;7.440;2023-01-28T02:48:42;10.03;;;7.90;;
2976;SDS011;1498;51.500;7.440;2023-01-28T02:51:09;10.00;;;9.00;;
2976;SDS011;1498;51.500;7.440;2023-01-28T02:54:05;8.57;;;7.77;;
2976;SDS011;1498;51.500;7.440;2023-01-28T02:59:24;9.53;;;7.60;;
2976;SDS011;1498;51.500;7.440;2023-01-28T03:04:27;8.27;;;7.40;;
2976;SDS011;1498;51.500;7.440;2023-01-28T03:06:59;7.73;;;7.03;;
2976;SDS011;1498;51.500;7.440;2023-01-28T03:09:29;8.03;;;7.23;;
2976;SDS011;1498;51.500;7.440;2023-01-28T03:12:10;9.00;;;7.10;;
2976;SDS011;1498;51.500;7.440;2023-01-28T03:15:16;10.67;;;9.67;;
2976;SDS011;1498;51.500;7.440;2023-01-28T03:20:53;18.00;;;10.73;;
2976;SDS011;1498;51.500;7.440;2023-01-28T03:23:58;13.00;;;10.00;;
2976;SDS011;1498;51.500;7.440;2023-01-28T03:29:52;12.30;;;9.07;;
2976;SDS011;1498;51.500;7.440;2023-01-28T03:32:40;9.30;;;7.90;;
2976;SDS011;1498;51.500;7.440;2023-01-28T03:35:27;11.00;;;8.63;;
2976;SDS011;1498;51.500;7.440;2023-01-28T03:38:14;15.70;;;7.93;;
2976;SDS011;1498;51.500;7.440;2023-01-28T05:31:12;19.37;;;13.87;;
2976;SDS011;1498;51.500;7.440;2023-01-28T05:33:37;19.77;;;13.57;;
2976;SDS011;1498;51.500;7.440;2023-01-28T05:36:03;18.00;;;14.87;;
2976;SDS011;1498;51.500;7.440;2023-01-28T05:38:29;19.83;;;13.27;;
2976;SDS011;1498;51.500;7.440;2023-01-28T05:40:55;18.30;;;13.00;;
2976;SDS011;1498;51.500;7.440;2023-01-28T05:43:20;15.27;;;12.47;;
2976;SDS011;1498;51.500;7.440;2023-01-28T05:45:46;13.03;;;10.83;;
2976;SDS011;1498;51.500;7.440;2023-01-28T05:48:12;12.23;;;10.93;;
2976;SDS011;1498;51.500;7.440;2023-01-28T05:50:38;12.63;;;11.23;;
2976;SDS011;1498;51.500;7.440;2023-01-28T05:53:04;10.00;;;9.00;;
2976;SDS011;1498;51.500;7.440;2023-01-28T05:55:30;11.43;;;9.77;;
2976;SDS011;1498;51.500;7.440;2023-01-28T05:57:56;11.43;;;10.20;;
2976;SDS011;1498;51.500;7.440;2023-01-28T06:00:21;15.73;;;10.00;;
2976;SDS011;1498;51.500;7.440;2023-01-28T06:02:49;11.67;;;10.00;;
2976;SDS011;1498;51.500;7.440;2023-01-28T06:05:15;12.23;;;10.93;;
2976;SDS011;1498;51.500;7.440;2023-01-28T06:07:43;14.70;;;11.30;;
2976;SDS011;1498;51.500;7.440;2023-01-28T06:10:12;13.73;;;11.30;;
2976;SDS011;1498;51.500;7.440;2023-01-28T06:12:38;11.47;;;10.30;;
2976;SDS011;1498;51.500;7.440;2023-01-28T06:15:04;12.70;;;10.23;;
2976;SDS011;1498;51.500;7.440;2023-01-28T06:17:30;12.27;;;10.80;;
2976;SDS011;1498;51.500;7.440;2023-01-28T06:19:55;11.73;;;10.07;;
2976;SDS011;1498;51.500;7.440;2023-01-28T06:22:21;10.10;;;9.10;;
2976;SDS011;1498;51.500;7.440;2023-01-28T06:24:47;11.60;;;10.17;;
2976;SDS011;1498;51.500;7.440;2023-01-28T06:27:12;11.60;;;8.10;;
2976;SDS011;1498;51.500;7.440;2023-01-28T06:29:38;11.80;;;9.60;;
2976;SDS011;1498;51.500;7.440;2023-01-28T06:32:04;11.40;;;8.60;;
2976;SDS011;1498;51.500;7.440;2023-01-28T06:34:29;11.73;;;9.57;;
2976;SDS011;1498;51.500;7.440;2023-01-28T06:36:55;10.57;;;9.40;;
2976;SDS011;1498;51.500;7.440;2023-01-28T06:39:21;10.90;;;7.80;;
2976;SDS011;1498;51.500;7.440;2023-01-28T06:41:47;17.40;;;12.23;;
2976;SDS011;1498;51.500;7.440;2023-01-28T06:44:13;17.50;;;13.60;;
2976;SDS011;1498;51.500;7.440;2023-01-28T06:46:39;17.43;;;12.70;;
2976;SDS011;1498;51.500;7.440;2023-01-28T06:49:05;12.00;;;10.67;;
2976;SDS011;1498;51.500;7.440;2023-01-28T06:51:30;13.90;;;11.13;;
2976;SDS011;1498;51.500;7.440;2023-01-28T06:53:56;9.70;;;8.70;;
2976;SDS011;1498;51.500;7.440;2023-01-28T06:56:22;8.80;;;7.87;;
2976;SDS011;1498;51.500;7.440;2023-01-28T06:58:47;9.60;;;8.70;;
2976;SDS011;1498;51.500;7.440;2023-01-28T07:01:13;8.83;;;7.80;;
2976;SDS011;1498;51.500;7.440;2023-01-28T07:03:38;13.77;;;9.40;;
2976;SDS011;1498;51.500;7.440;2023-01-28T07:06:04;8.60;;;7.73;;
2976;SDS011;1498;51.500;7.440;2023-01-28T07:08:30;9.23;;;7.27;;
2976;SDS011;1498;51.500;7.440;2023-01-28T07:10:55;8.67;;;7.73;;
2976;SDS011;1498;51.500;7.440;2023-01-28T07:13:21;9.33;;;8.43;;
2976;SDS011;1498;51.500;7.440;2023-01-28T07:15:46;10.03;;;8.97;;
2976;SDS011;1498;51.500;7.440;2023-01-28T07:18:13;8.20;;;7.40;;
2976;SDS011;1498;51.500;7.440;2023-01-28T07:20:38;11.90;;;7.40;;
2976;SDS011;1498;51.500;7.440;2023-01-28T07:23:04;7.20;;;6.60;;
2976;SDS011;1498;51.500;7.440;2023-01-28T07:25:29;8.70;;;7.00;;
2976;SDS011;1498;51.500;7.440;2023-01-28T07:27:55;7.57;;;6.80;;
2976;SDS011;1498;51.500;7.440;2023-01-28T07:30:21;7.67;;;6.97;;
2976;SDS011;1498;51.500;7.440;2023-01-28T07:32:51;8.47;;;7.03;;
2976;SDS011;1498;51.500;7.440;2023-01-28T07:35:20;7.40;;;6.80;;
2976;SDS011;1498;51.500;7.440;2023-01-28T07:37:53;9.47;;;7.50;;
2976;SDS011;1498;51.500;7.440;2023-01-28T07:40:26;11.13;;;8.03;;
2976;SDS011;1498;51.500;7.440;2023-01-28T07:42:52;6.70;;;6.10;;
2976;SDS011;1498;51.500;7.440;2023-01-28T07:45:19;7.60;;;6.80;;
2976;SDS011;1498;51.500;7.440;2023-01-28T07:47:52;7.47;;;6.77;;
2976;SDS011;1498;51.500;7.440;2023-01-28T07:50:21;12.63;;;7.67;;
2976;SDS011;1498;51.500;7.440;2023-01-28T07:52:47;9.23;;;7.00;;
2976;SDS011;1498;51.500;7.440;2023-01-28T07:55:13;8.27;;;6.50;;
2976;SDS011;1498;51.500;7.440;2023-01-28T07:57:46;9.80;;;8.40;;
2976;SDS011;1498;51.500;7.440;2023-01-28T08:00:14;11.27;;;7.23;;
2976;SDS011;1498;51.500;7.440;2023-01-28T08:02:40;7.13;;;6.43;;
2976;SDS011;1498;51.500;7.440;2023-01-28T08:05:05;8.67;;;7.77;;
2976;SDS011;1498;51.500;7.440;2023-01-28T08:07:31;8.00;;;7.00;;
2976;SDS011;1498;51.500;7.440;2023-01-28T08:09:56;8.43;;;7.07;;
2976;SDS011;1498;51.500;7.440;2023-01-28T08:12:22;12.27;;;7.63;;
2976;SDS011;1498;51.500;7.440;2023-01-28T08:14:48;7.70;;;7.00;;
2976;SDS011;1498;51.500;7.440;2023-01-28T08:17:13;8.47;;;7.73;;
2976;SDS011;1498;51.500;7.440;2023-01-28T08:19:39;11.00;;;7.50;;
2976;SDS011;1498;51.500;7.440;2023-01-28T08:22:04;8.40;;;7.03;;
2976;SDS011;1498;51.500;7.440;2023-01-28T08:24:30;9.83;;;8.60;;
2976;SDS011;1498;51.500;7.440;2023-01-28T08:26:55;8.07;;;7.37;;
2976;SDS011;1498;51.500;7.440;2023-01-28T08:29:21;8.87;;;7.97;;
2976;SDS011;1498;51.500;7.440;2023-01-28T08:31:46;11.33;;;8.23;;
2976;SDS011;1498;51.500;7.440;2023-01-28T08:34:12;9.97;;;8.37;;
2976;SDS011;1498;51.500;7.440;2023-01-28T08:36:37;8.90;;;7.63;;
2976;SDS011;1498;51.500;7.440;2023-01-28T08:39:03;10.13;;;8.23;;
2976;SDS011;1498;51.500;7.440;2023-01-28T08:41:29;11.03;;;8.70;;
2976;SDS011;1498;51.500;7.440;2023-01-28T08:43:55;10.30;;;7.50;;
2976;SDS011;1498;51.500;7.440;2023-01-28T08:46:20;9.30;;;7.60;;
2976;SDS011;1498;51.500;7.440;2023-01-28T08:48:48;8.53;;;7.43;;
2976;SDS011;1498;51.500;7.440;2023-01-28T08:51:14;8.63;;;7.80;;
2976;SDS011;1498;51.500;7.440;2023-01-28T08:53:39;9.50;;;8.60;;
2976;SDS011;1498;51.500;7.440;2023-01-28T08:56:05;8.17;;;7.27;;
2976;SDS011;1498;51.500;7.440;2023-01-28T08:58:30;8.60;;;7.40;;
2976;SDS011;1498;51.500;7.440;2023-01-28T09:00:56;10.10;;;7.70;;
2976;SDS011;1498;51.500;7.440;2023-01-28T09:03:22;13.70;;;8.00;;
2976;SDS011;1498;51.500;7.440;2023-01-28T09:05:47;10.60;;;8.60;;
2976;SDS011;1498;51.500;7.440;2023-01-28T09:08:14;14.93;;;9.23;;
2976;SDS011;1498;51.500;7.440;2023-01-28T09:10:40;10.87;;;8.23;;
2976;SDS011;1498;51.500;7.440;2023-01-28T09:13:06;14.57;;;10.67;;
2976;SDS011;1498;51.500;7.440;2023-01-28T09:15:34;17.10;;;12.27;;
2976;SDS011;1498;51.500;7.440;2023-01-28T09:18:00;13.70;;;10.27;;
2976;SDS011;1498;51.500;7.440;2023-01-28T09:20:26;15.20;;;10.80;;
2976;SDS011;1498;51.500;7.440;2023-01-28T09:22:53;20.53;;;11.83;;
2976;SDS011;1498;51.500;7.440;2023-01-28T09:25:19;16.00;;;12.57;;
2976;SDS011;1498;51.500;7.440;2023-01-28T09:27:44;17.33;;;12.07;;
2976;SDS011;1498;51.500;7.440;2023-01-28T09:30:10;17.07;;;12.53;;
2976;SDS011;1498;51.500;7.440;2023-01-28T09:32:37;21.20;;;13.33;;
2976;SDS011;1498;51.500;7.440;2023-01-28T09:35:03;31.93;;;17.37;;
2976;SDS011;1498;51.500;7.440;2023-01-28T09:37:29;21.30;;;14.17;;
2976;SDS011;1498;51.500;7.440;2023-01-28T09:39:56;22.83;;;14.40;;
2976;SDS011;1498;51.500;7.440;2023-01-28T09:45:08;19.50;;;13.10;;
2976;SDS011;1498;51.500;7.440;2023-01-28T09:50:19;21.17;;;14.67;;
2976;SDS011;1498;51.500;7.440;2023-01-28T09:52:52;18.50;;;13.40;;
2976;SDS011;1498;51.500;7.440;2023-01-28T09:55:31;17.80;;;13.50;;
2976;SDS011;1498;51.500;7.440;2023-01-28T09:57:59;18.30;;;11.00;;
2976;SDS011;1498;51.500;7.440;2023-01-28T10:09:04;20.83;;;12.53;;
2976;SDS011;1498;51.500;7.440;2023-01-28T10:17:43;13.47;;;9.73;;
2976;SDS011;1498;51.500;7.440;2023-01-28T10:25:48;20.07;;;14.20;;
2976;SDS011;1498;51.500;7.440;2023-01-28T10:28:18;20.93;;;15.93;;
2976;SDS011;1498;51.500;7.440;2023-01-28T10:30:49;18.50;;;12.40;;
2976;SDS011;1498;51.500;7.440;2023-01-28T10:35:53;20.13;;;11.30;;
2976;SDS011;1498;51.500;7.440;2023-01-28T10:38:20;20.97;;;14.30;;
2976;SDS011;1498;51.500;7.440;2023-01-28T10:40:47;16.27;;;12.10;;
2976;SDS011;1498;51.500;7.440;2023-01-28T10:43:15;12.60;;;10.40;;
2976;SDS011;1498;51.500;7.440;2023-01-28T10:46:06;13.67;;;10.70;;
2976;SDS011;1498;51.500;7.440;2023-01-28T10:48:57;16.40;;;11.87;;
2976;SDS011;1498;51.500;7.440;2023-01-28T10:51:38;8.83;;;7.93;;
2976;SDS011;1498;51.500;7.440;2023-01-28T10:54:19;9.80;;;7.80;;
2976;SDS011;1498;51.500;7.440;2023-01-28T10:56:46;22.20;;;13.20;;
2976;SDS011;1498;51.500;7.440;2023-01-28T11:01:52;38.87;;;22.30;;
2976;SDS011;1498;51.500;7.440;2023-01-28T11:04:21;40.77;;;22.10;;
2976;SDS011;1498;51.500;7.440;2023-01-28T11:06:51;44.90;;;25.57;;
2976;SDS011;1498;51.500;7.440;2023-01-28T11:09:22;41.10;;;22.20;;
2976;SDS011;1498;51.500;7.440;2023-01-28T11:11:49;36.97;;;21.20;;
2976;SDS011;1498;51.500;7.440;2023-01-28T11:14:23;39.10;;;23.20;;
2976;SDS011;1498;51.500;7.440;2023-01-28T11:16:50;38.57;;;23.60;;
2976;SDS011;1498;51.500;7.440;2023-01-28T11:19:17;31.30;;;19.63;;
2976;SDS011;1498;51.500;7.440;2023-01-28T11:21:50;28.07;;;17.17;;
2976;SDS011;1498;51.500;7.440;2023-01-28T11:24:20;22.47;;;15.27;;
2976;SDS011;1498;51.500;7.440;2023-01-28T11:26:49;24.10;;;15.17;;
2976;SDS011;1498;51.500;7.440;2023-01-28T11:31:50;22.80;;;15.20;;
2976;SDS011;1498;51.500;7.440;2023-01-28T11:34:17;20.20;;;14.43;;
2976;SDS011;1498;51.500;7.440;2023-01-28T11:36:50;22.10;;;15.13;;
2976;SDS011;1498;51.500;7.440;2023-01-28T11:41:52;18.03;;;13.43;;
2976;SDS011;1498;51.500;7.440;2023-01-28T11:44:22;16.07;;;12.93;;
2976;SDS011;1498;51.500;7.440;2023-01-28T11:54:50;16.50;;;11.10;;
2976;SDS011;1498;51.500;7.440;2023-01-28T12:03:15;21.27;;;13.90;;
2976;SDS011;1498;51.500;7.440;2023-01-28T12:08:43;15.33;;;11.83;;
2976;SDS011;1498;51.500;7.440;2023-01-28T12:19:27;17.60;;;11.13;;
2976;SDS011;1498;51.500;7.440;2023-01-28T12:25:10;19.97;;;13.53;;
2976;SDS011;1498;51.500;7.440;2023-01-28T12:27:59;20.87;;;14.37;;
2976;SDS011;1498;51.500;7.440;2023-01-28T12:33:06;23.13;;;16.40;;
2976;SDS011;1498;51.500;7.440;2023-01-28T12:41:20;16.30;;;13.87;;
2976;SDS011;1498;51.500;7.440;2023-01-28T12:49:18;20.23;;;13.47;;
2976;SDS011;1498;51.500;7.440;2023-01-28T12:57:08;14.53;;;11.80;;
2976;SDS011;1498;51.500;7.440;2023-01-28T12:59:45;16.60;;;14.47;;
2976;SDS011;1498;51.500;7.440;2023-01-28T13:02:32;16.37;;;12.50;;
2976;SDS011;1498;51.500;7.440;2023-01-28T13:07:44;19.37;;;15.23;;
2976;SDS011;1498;51.500;7.440;2023-01-28T13:13:03;17.60;;;13.10;;
2976;SDS011;1498;51.500;7.440;2023-01-28T13:15:29;18.13;;;13.30;;
2976;SDS011;1498;51.500;7.440;2023-01-28T13:17:56;15.77;;;13.80;;
2976;SDS011;1498;51.500;7.440;2023-01-28T13:23:24;14.43;;;12.83;;
2976;SDS011;1498;51.500;7.440;2023-01-28T13:28:44;14.33;;;11.97;;
2976;SDS011;1498;51.500;7.440;2023-01-28T13:31:10;13.37;;;11.93;;
2976;SDS011;1498;51.500;7.440;2023-01-28T13:33:41;16.73;;;12.77;;
2976;SDS011;1498;51.500;7.440;2023-01-28T13:36:52;16.10;;;12.23;;
2976;SDS011;1498;51.500;7.440;2023-01-28T13:39:13;13.00;;;11.57;;
2976;SDS011;1498;51.500;7.440;2023-01-28T13:41:51;15.33;;;11.40;;
2976;SDS011;1498;51.500;7.440;2023-01-28T13:44:31;16.07;;;12.20;;
2976;SDS011;1498;51.500;7.440;2023-01-28T13:49:49;14.83;;;12.23;;
2976;SDS011;1498;51.500;7.440;2023-01-28T13:52:25;14.37;;;12.00;;
2976;SDS011;1498;51.500;7.440;2023-01-28T13:55:04;16.40;;;12.93;;
2976;SDS011;1498;51.500;7.440;2023-01-28T13:57:47;14.83;;;13.00;;
2976;SDS011;1498;51.500;7.440;2023-01-28T14:00:35;14.03;;;12.33;;
2976;SDS011;1498;51.500;7.440;2023-01-28T14:06:02;15.00;;;11.60;;
2976;SDS011;1498;51.500;7.440;2023-01-28T14:08:53;14.53;;;12.70;;
2976;SDS011;1498;51.500;7.440;2023-01-28T14:11:43;21.77;;;12.83;;
2976;SDS011;1498;51.500;7.440;2023-01-28T14:14:34;16.43;;;12.93;;
2976;SDS011;1498;51.500;7.440;2023-01-28T14:17:23;14.90;;;12.40;;
2976;SDS011;1498;51.500;7.440;2023-01-28T14:19:59;15.20;;;12.47;;
2976;SDS011;1498;51.500;7.440;2023-01-28T14:22:25;15.43;;;13.70;;
2976;SDS011;1498;51.500;7.440;2023-01-28T14:24:51;18.27;;;14.40;;
2976;SDS011;1498;51.500;7.440;2023-01-28T14:27:20;13.30;;;11.27;;
2976;SDS011;1498;51.500;7.440;2023-01-28T14:30:28;20.40;;;13.93;;
2976;SDS011;1498;51.500;7.440;2023-01-28T14:33:09;17.67;;;13.30;;
2976;SDS011;1498;51.500;7.440;2023-01-28T14:35:37;16.17;;;12.33;;
2976;SDS011;1498;51.500;7.440;2023-01-28T14:38:08;16.43;;;14.50;;
2976;SDS011;1498;51.500;7.440;2023-01-28T14:40:39;21.43;;;15.30;;
2976;SDS011;1498;51.500;7.440;2023-01-28T14:43:06;18.10;;;15.00;;
2976;SDS011;1498;51.500;7.440;2023-01-28T14:48:25;21.33;;;15.10;;
2976;SDS011;1498;51.500;7.440;2023-01-28T14:51:16;25.57;;;17.63;;
2976;SDS011;1498;51.500;7.440;2023-01-28T14:54:01;21.13;;;14.87;;
2976;SDS011;1498;51.500;7.440;2023-01-28T15:01:58;20.77;;;16.27;;
2976;SDS011;1498;51.500;7.440;2023-01-28T15:04:25;19.93;;;15.77;;
2976;SDS011;1498;51.500;7.440;2023-01-28T15:06:50;20.00;;;15.13;;
2976;SDS011;1498;51.500;7.440;2023-01-28T15:09:16;24.90;;;16.53;;
2976;SDS011;1498;51.500;7.440;2023-01-28T15:11:43;20.27;;;15.13;;
2976;SDS011;1498;51.500;7.440;2023-01-28T15:14:14;20.00;;;14.70;;
2976;SDS011;1498;51.500;7.440;2023-01-28T15:16:47;22.00;;;15.30;;
2976;SDS011;1498;51.500;7.440;2023-01-28T15:19:13;19.00;;;15.40;;
2976;SDS011;1498;51.500;7.440;2023-01-28T15:21:40;18.13;;;15.00;;
2976;SDS011;1498;51.500;7.440;2023-01-28T15:24:09;16.60;;;14.43;;
2976;SDS011;1498;51.500;7.440;2023-01-28T15:26:37;17.97;;;14.53;;
2976;SDS011;1498;51.500;7.440;2023-01-28T15:29:03;21.80;;;17.77;;
2976;SDS011;1498;51.500;7.440;2023-01-28T15:31:32;22.23;;;16.63;;
2976;SDS011;1498;51.500;7.440;2023-01-28T15:36:38;20.37;;;16.07;;
2976;SDS011;1498;51.500;7.440;2023-01-28T15:39:04;27.40;;;18.43;;
2976;SDS011;1498;51.500;7.440;2023-01-28T15:41:47;25.23;;;18.03;;
2976;SDS011;1498;51.500;7.440;2023-01-28T15:44:17;29.43;;;18.27;;
2976;SDS011;1498;51.500;7.440;2023-01-28T15:47:03;25.70;;;18.63;;
2976;SDS011;1498;51.500;7.440;2023-01-28T15:49:53;23.90;;;16.83;;
2976;SDS011;1498;51.500;7.440;2023-01-28T15:52:34;27.30;;;18.40;;
2976;SDS011;1498;51.500;7.440;2023-01-28T15:55:05;27.87;;;18.60;;
2976;SDS011;1498;51.500;7.440;2023-01-28T15:57:32;22.83;;;18.00;;
2976;SDS011;1498;51.500;7.440;2023-01-28T16:00:17;22.63;;;17.30;;
2976;SDS011;1498;51.500;7.440;2023-01-28T16:02:45;27.17;;;19.13;;
2976;SDS011;1498;51.500;7.440;2023-01-28T16:05:30;24.73;;;18.20;;
2976;SDS011;1498;51.500;7.440;2023-01-28T16:07:58;23.50;;;16.73;;
2976;SDS011;1498;51.500;7.440;2023-01-28T16:10:28;23.33;;;16.97;;
2976;SDS011;1498;51.500;7.440;2023-01-28T16:12:56;25.10;;;18.90;;
2976;SDS011;1498;51.500;7.440;2023-01-28T16:15:36;25.50;;;18.97;;
2976;SDS011;1498;51.500;7.440;2023-01-28T16:18:03;28.50;;;19.80;;
2976;SDS011;1498;51.500;7.440;2023-01-28T16:20:30;32.93;;;21.60;;
2976;SDS011;1498;51.500;7.440;2023-01-28T16:22:59;26.13;;;19.10;;
2976;SDS011;1498;51.500;7.440;2023-01-28T16:25:28;28.77;;;17.80;;
2976;SDS011;1498;51.500;7.440;2023-01-28T16:27:54;31.53;;;18.90;;
2976;SDS011;1498;51.500;7.440;2023-01-28T16:30:20;39.63;;;25.30;;
2976;SDS011;1498;51.500;7.440;2023-01-28T16:32:46;40.13;;;27.42;;
2976;SDS011;1498;51.500;7.440;2023-01-28T16:35:13;30.70;;;19.90;;
2976;SDS011;1498;51.500;7.440;2023-01-28T16:37:48;25.00;;;17.70;;
2976;SDS011;1498;51.500;7.440;2023-01-28T16:40:15;35.80;;;21.40;;
2976;SDS011;1498;51.500;7.440;2023-01-28T16:42:43;24.23;;;16.50;;
2976;SDS011;1498;51.500;7.440;2023-01-28T16:47:42;34.50;;;22.93;;
2976;SDS011;1498;51.500;7.440;2023-01-28T16:50:08;29.57;;;21.17;;
2976;SDS011;1498;51.500;7.440;2023-01-28T16:52:35;28.30;;;19.30;;
2976;SDS011;1498;51.500;7.440;2023-01-28T16:55:02;23.20;;;16.03;;
2976;SDS011;1498;51.500;7.440;2023-01-28T16:57:28;29.03;;;18.70;;
2976;SDS011;1498;51.500;7.440;2023-01-28T16:59:59;30.70;;;17.87;;
2976;SDS011;1498;51.500;7.440;2023-01-28T17:02:24;31.60;;;20.37;;
2976;SDS011;1498;51.500;7.440;2023-01-28T17:04:50;28.57;;;18.57;;
2976;SDS011;1498;51.500;7.440;2023-01-28T17:07:16;35.70;;;16.43;;
2976;SDS011;1498;51.500;7.440;2023-01-28T17:09:41;25.90;;;17.93;;
2976;SDS011;1498;51.500;7.440;2023-01-28T17:12:07;30.70;;;18.83;;
2976;SDS011;1498;51.500;7.440;2023-01-28T17:14:32;23.40;;;15.80;;
2976;SDS011;1498;51.500;7.440;2023-01-28T17:16:58;28.93;;;17.30;;
2976;SDS011;1498;51.500;7.440;2023-01-28T17:19:24;26.23;;;17.40;;
2976;SDS011;1498;51.500;7.440;2023-01-28T17:21:49;30.10;;;18.40;;
2976;SDS011;1498;51.500;7.440;2023-01-28T17:24:15;33.40;;;20.90;;
2976;SDS011;1498;51.500;7.440;2023-01-28T17:26:40;33.93;;;21.00;;
2976;SDS011;1498;51.500;7.440;2023-01-28T17:29:06;35.67;;;20.40;;
2976;SDS011;1498;51.500;7.440;2023-01-28T17:31:32;34.20;;;19.53;;
2976;SDS011;1498;51.500;7.440;2023-01-28T17:33:58;29.40;;;19.77;;
2976;SDS011;1498;51.500;7.440;2023-01-28T17:36:25;32.07;;;20.77;;
2976;SDS011;1498;51.500;7.440;2023-01-28T17:38:51;34.27;;;20.43;;
2976;SDS011;1498;51.500;7.440;2023-01-28T17:41:18;32.90;;;21.13;;
2976;SDS011;1498;51.500;7.440;2023-01-28T17:43:50;37.87;;;21.40;;
2976;SDS011;1498;51.500;7.440;2023-01-28T17:46:17;34.97;;;20.97;;
2976;SDS011;1498;51.500;7.440;2023-01-28T17:48:44;43.00;;;23.90;;
2976;SDS011;1498;51.500;7.440;2023-01-28T17:51:13;29.97;;;19.77;;
2976;SDS011;1498;51.500;7.440;2023-01-28T17:53:43;30.03;;;19.60;;
2976;SDS011;1498;51.500;7.440;2023-01-28T17:58:54;35.40;;;22.90;;
2976;SDS011;1498;51.500;7.440;2023-01-28T18:01:21;32.73;;;22.37;;
2976;SDS011;1498;51.500;7.440;2023-01-28T18:03:47;37.20;;;21.77;;
2976;SDS011;1498;51.500;7.440;2023-01-28T18:06:13;39.50;;;23.50;;
2976;SDS011;1498;51.500;7.440;2023-01-28T18:08:39;34.83;;;22.80;;
2976;SDS011;1498;51.500;7.440;2023-01-28T18:11:06;43.97;;;26.13;;
2976;SDS011;1498;51.500;7.440;2023-01-28T18:13:36;44.63;;;26.33;;
2976;SDS011;1498;51.500;7.440;2023-01-28T18:16:02;39.80;;;25.93;;
2976;SDS011;1498;51.500;7.440;2023-01-28T18:18:29;43.37;;;24.67;;
2976;SDS011;1498;51.500;7.440;2023-01-28T18:20:56;43.10;;;25.80;;
2976;SDS011;1498;51.500;7.440;2023-01-28T18:23:23;44.30;;;26.50;;
2976;SDS011;1498;51.500;7.440;2023-01-28T18:25:49;48.53;;;27.13;;
2976;SDS011;1498;51.500;7.440;2023-01-28T18:28:14;52.30;;;32.97;;
2976;SDS011;1498;51.500;7.440;2023-01-28T18:30:40;52.70;;;29.97;;
2976;SDS011;1498;51.500;7.440;2023-01-28T18:33:05;46.40;;;30.07;;
2976;SDS011;1498;51.500;7.440;2023-01-28T18:35:31;52.07;;;31.37;;
2976;SDS011;1498;51.500;7.440;2023-01-28T18:37:56;49.47;;;30.33;;
2976;SDS011;1498;51.500;7.440;2023-01-28T18:40:26;49.17;;;26.03;;
2976;SDS011;1498;51.500;7.440;2023-01-28T18:42:54;57.23;;;28.97;;
2976;SDS011;1498;51.500;7.440;2023-01-28T18:45:20;47.37;;;25.60;;
2976;SDS011;1498;51.500;7.440;2023-01-28T18:47:46;52.10;;;26.77;;
2976;SDS011;1498;51.500;7.440;2023-01-28T18:50:11;35.73;;;25.07;;
2976;SDS011;1498;51.500;7.440;2023-01-28T18:52:37;43.90;;;24.87;;
2976;SDS011;1498;51.500;7.440;2023-01-28T18:55:02;42.90;;;27.73;;
2976;SDS011;1498;51.500;7.440;2023-01-28T18:57:28;41.57;;;27.83;;
2976;SDS011;1498;51.500;7.440;2023-01-28T18:59:54;43.73;;;27.90;;
2976;SDS011;1498;51.500;7.440;2023-01-28T19:02:20;69.03;;;27.57;;
2976;SDS011;1498;51.500;7.440;2023-01-28T19:04:45;50.77;;;30.47;;
2976;SDS011;1498;51.500;7.440;2023-01-28T19:07:11;47.40;;;26.80;;
2976;SDS011;1498;51.500;7.440;2023-01-28T19:09:37;40.97;;;26.00;;
2976;SDS011;1498;51.500;7.440;2023-01-28T19:12:02;43.07;;;25.87;;
2976;SDS011;1498;51.500;7.440;2023-01-28T19:14:28;60.00;;;27.73;;
2976;SDS011;1498;51.500;7.440;2023-01-28T19:16:54;49.57;;;28.80;;
2976;SDS011;1498;51.500;7.440;2023-01-28T19:19:19;55.73;;;30.57;;
2976;SDS011;1498;51.500;7.440;2023-01-28T19:21:45;48.23;;;29.43;;